createdAt,value
2022-10-28T00:01:16.142Z,19.48
2022-10-28T00:03:46.380Z,16.50
2022-10-28T00:06:17.478Z,17.20
2022-10-28T00:08:46.016Z,18.45
2022-10-28T00:11:15.620Z,13.68
2022-10-28T00:13:45.480Z,17.00
2022-10-28T00:16:17.146Z,16.70
2022-10-28T00:18:45.676Z,14.00
2022-10-28T00:21:15.627Z,12.10
2022-10-28T00:23:43.871Z,16.52
2022-10-28T00:26:14.203Z,15.50
2022-10-28T00:28:43.077Z,18.67
2022-10-28T00:31:12.941Z,12.63
2022-10-28T00:33:42.926Z,17.63
2022-10-28T00:36:13.464Z,13.63
2022-10-28T00:38:42.038Z,19.38
2022-10-28T00:41:11.252Z,17.85
2022-10-28T00:43:41.651Z,14.18
2022-10-28T00:46:21.049Z,16.38
2022-10-28T00:48:55.335Z,15.45
2022-10-28T00:51:26.079Z,16.85
2022-10-28T00:53:56.052Z,13.98
2022-10-28T00:58:57.941Z,17.95
2022-10-28T01:01:28.035Z,20.77
2022-10-28T01:03:58.975Z,16.40
2022-10-28T01:06:29.559Z,15.40
2022-10-28T01:09:00.065Z,15.82
2022-10-28T01:11:41.591Z,14.88
2022-10-28T01:14:18.951Z,17.08
2022-10-28T01:17:01.982Z,21.55
2022-10-28T01:20:17.042Z,18.35
2022-10-28T01:22:53.774Z,15.68
2022-10-28T01:25:49.156Z,15.90
2022-10-28T01:28:44.214Z,14.30
2022-10-28T01:31:28.191Z,16.50
2022-10-28T01:34:06.827Z,18.83
2022-10-28T01:36:39.893Z,18.42
2022-10-28T01:39:17.241Z,17.88
2022-10-28T01:41:52.920Z,16.92
2022-10-28T01:44:28.468Z,15.88
2022-10-28T01:47:04.379Z,18.23
2022-10-28T01:49:39.402Z,19.85
2022-10-28T01:52:12.193Z,18.88
2022-10-28T01:54:43.996Z,19.80
2022-10-28T01:57:15.664Z,14.13
2022-10-28T01:59:45.794Z,15.07
2022-10-28T02:02:16.202Z,25.98
2022-10-28T02:04:44.810Z,24.25
2022-10-28T02:07:13.079Z,17.42
2022-10-28T02:09:58.228Z,15.05
2022-10-28T02:12:29.665Z,17.30
2022-10-28T02:15:28.138Z,15.98
2022-10-28T02:18:10.867Z,19.02
2022-10-28T02:20:47.216Z,20.13
2022-10-28T02:23:24.025Z,20.95
2022-10-28T02:25:57.596Z,21.75
2022-10-28T02:28:33.122Z,18.23
2022-10-28T02:31:06.776Z,18.15
2022-10-28T02:33:40.774Z,19.52
2022-10-28T02:36:12.828Z,17.90
2022-10-28T02:38:45.091Z,17.77
2022-10-28T02:41:18.412Z,20.15
2022-10-28T02:43:49.249Z,18.48
2022-10-28T02:46:20.242Z,19.25
2022-10-28T02:48:52.464Z,22.05
2022-10-28T02:51:26.688Z,19.35
2022-10-28T02:54:04.877Z,21.15
2022-10-28T02:56:38.398Z,18.98
2022-10-28T02:59:11.170Z,17.50
2022-10-28T03:01:39.986Z,18.23
2022-10-28T03:04:09.596Z,17.23
2022-10-28T03:06:37.929Z,22.08
2022-10-28T03:09:06.124Z,20.15
2022-10-28T03:11:34.339Z,17.83
2022-10-28T03:14:02.635Z,17.08
2022-10-28T03:16:30.943Z,21.40
2022-10-28T03:18:59.490Z,20.30
2022-10-28T03:21:28.985Z,20.52
2022-10-28T03:23:57.656Z,19.55
2022-10-28T03:26:25.840Z,22.02
2022-10-28T03:28:54.228Z,16.83
2022-10-28T03:31:22.579Z,17.48
2022-10-28T03:33:50.902Z,19.20
2022-10-28T03:36:19.299Z,20.75
2022-10-28T03:38:49.065Z,17.40
2022-10-28T03:41:17.339Z,21.15
2022-10-28T03:43:45.716Z,21.67
2022-10-28T03:46:14.035Z,17.45
2022-10-28T03:48:42.515Z,18.70
2022-10-28T03:51:10.777Z,23.50
2022-10-28T03:53:39.098Z,19.52
2022-10-28T03:56:09.099Z,20.98
2022-10-28T03:58:40.873Z,18.90
2022-10-28T04:01:09.825Z,24.42
2022-10-28T04:03:38.427Z,18.80
2022-10-28T04:06:07.005Z,24.65
2022-10-28T04:08:35.331Z,26.15
2022-10-28T04:11:03.838Z,24.40
2022-10-28T04:13:33.601Z,26.27
2022-10-28T04:16:02.527Z,20.73
2022-10-28T04:18:30.947Z,20.67
2022-10-28T04:20:59.353Z,23.15
2022-10-28T04:23:27.757Z,16.15
2022-10-28T04:25:56.407Z,19.90
2022-10-28T04:28:25.295Z,21.02
2022-10-28T04:30:54.834Z,23.17
2022-10-28T04:33:23.051Z,32.63
2022-10-28T04:35:51.271Z,23.33
2022-10-28T04:38:19.678Z,18.80
2022-10-28T04:40:49.197Z,21.48
2022-10-28T04:43:17.915Z,20.40
2022-10-28T04:45:47.334Z,23.45
2022-10-28T04:48:16.998Z,18.83
2022-10-28T04:50:46.386Z,22.50
2022-10-28T04:53:14.869Z,24.13
2022-10-28T04:55:43.186Z,26.35
2022-10-28T04:58:11.425Z,20.00
2022-10-28T05:00:39.595Z,17.30
2022-10-28T05:03:07.894Z,26.55
2022-10-28T05:05:37.300Z,25.88
2022-10-28T05:08:05.712Z,23.35
2022-10-28T05:10:34.077Z,19.80
2022-10-28T05:13:02.266Z,19.95
2022-10-28T05:15:31.431Z,19.75
2022-10-28T05:17:59.761Z,19.13
2022-10-28T05:20:28.182Z,16.25
2022-10-28T05:22:58.347Z,20.92
2022-10-28T05:25:26.773Z,17.55
2022-10-28T05:27:55.046Z,16.15
2022-10-28T05:30:23.430Z,24.50
2022-10-28T05:32:54.468Z,18.17
2022-10-28T05:35:23.532Z,16.75
2022-10-28T05:37:51.727Z,19.45
2022-10-28T05:40:21.639Z,21.15
2022-10-28T05:42:50.282Z,17.15
2022-10-28T05:45:18.764Z,18.90
2022-10-28T05:47:47.738Z,20.20
2022-10-28T05:50:18.181Z,16.13
2022-10-28T05:52:50.224Z,20.55
2022-10-28T05:55:20.759Z,15.15
2022-10-28T05:57:49.112Z,21.08
2022-10-28T06:00:18.159Z,14.05
2022-10-28T06:02:47.066Z,19.50
2022-10-28T06:05:15.630Z,19.58
2022-10-28T06:07:44.353Z,19.13
2022-10-28T06:10:13.058Z,23.52
2022-10-28T06:12:40.968Z,15.48
2022-10-28T06:15:09.802Z,16.58
2022-10-28T06:17:38.090Z,19.70
2022-10-28T06:20:06.985Z,21.38
2022-10-28T06:22:35.216Z,22.52
2022-10-28T06:25:03.784Z,16.30
2022-10-28T06:27:32.115Z,21.67
2022-10-28T06:30:01.775Z,19.10
2022-10-28T06:32:29.893Z,15.60
2022-10-28T06:34:58.445Z,15.88
2022-10-28T06:37:26.803Z,18.55
2022-10-28T06:39:57.278Z,18.38
2022-10-28T06:42:25.597Z,17.80
2022-10-28T06:44:54.300Z,14.02
2022-10-28T06:47:25.534Z,18.77
2022-10-28T06:49:53.926Z,14.57
2022-10-28T06:52:22.228Z,14.43
2022-10-28T06:54:50.455Z,18.63
2022-10-28T06:57:18.633Z,23.38
2022-10-28T06:59:46.899Z,18.13
2022-10-28T07:02:15.875Z,16.75
2022-10-28T07:04:45.689Z,16.48
2022-10-28T07:07:14.102Z,20.80
2022-10-28T07:09:44.976Z,18.80
2022-10-28T07:12:13.252Z,17.95
2022-10-28T07:14:41.915Z,19.52
2022-10-28T07:17:10.071Z,13.35
2022-10-28T07:19:38.380Z,19.10
2022-10-28T07:22:07.892Z,17.17
2022-10-28T07:24:36.457Z,14.73
2022-10-28T07:27:04.824Z,19.27
2022-10-28T07:29:33.095Z,16.15
2022-10-28T07:32:01.395Z,13.82
2022-10-28T07:34:29.842Z,27.73
2022-10-28T07:36:58.176Z,20.98
2022-10-28T07:39:27.923Z,16.02
2022-10-28T07:41:56.139Z,15.35
2022-10-28T07:44:24.462Z,12.18
2022-10-28T07:46:55.672Z,19.88
2022-10-28T07:49:26.425Z,13.40
2022-10-28T07:51:54.733Z,14.95
2022-10-28T07:54:23.423Z,16.38
2022-10-28T07:56:52.852Z,16.48
2022-10-28T07:59:25.845Z,13.77
2022-10-28T08:01:55.870Z,13.90
2022-10-28T08:04:24.589Z,14.70
2022-10-28T08:09:26.038Z,17.05
2022-10-28T08:11:58.129Z,11.70
2022-10-28T08:14:26.432Z,16.92
2022-10-28T08:16:54.588Z,16.67
2022-10-28T08:19:22.961Z,16.42
2022-10-28T08:21:51.402Z,19.83
2022-10-28T08:24:19.574Z,15.80
2022-10-28T08:26:47.987Z,18.63
2022-10-28T08:29:17.739Z,14.80
2022-10-28T08:31:46.059Z,14.82
2022-10-28T08:34:14.686Z,14.95
2022-10-28T08:36:43.005Z,18.27
2022-10-28T08:39:11.321Z,15.45
2022-10-28T08:41:41.956Z,14.85
2022-10-28T08:44:35.276Z,19.27
2022-10-28T08:47:17.684Z,16.65
2022-10-28T08:49:49.991Z,17.02
2022-10-28T08:52:27.687Z,13.20
2022-10-28T08:55:00.275Z,19.92
2022-10-28T08:57:37.642Z,20.00
2022-10-28T09:00:09.747Z,23.05
2022-10-28T09:02:53.512Z,10.93
2022-10-28T09:05:24.781Z,19.20
2022-10-28T09:07:53.417Z,16.02
2022-10-28T09:10:36.920Z,19.30
2022-10-28T09:13:12.873Z,18.90
2022-10-28T09:15:51.803Z,21.88
2022-10-28T09:18:22.176Z,18.02
2022-10-28T09:20:54.604Z,11.20
2022-10-28T09:23:27.893Z,16.73
2022-10-28T09:26:07.328Z,13.80
2022-10-28T09:28:51.546Z,20.02
2022-10-28T09:31:29.922Z,14.73
2022-10-28T09:34:20.397Z,16.70
2022-10-28T09:36:53.025Z,15.40
2022-10-28T09:39:27.693Z,19.90
2022-10-28T09:41:58.615Z,22.13
2022-10-28T09:44:34.110Z,23.67
2022-10-28T09:47:05.396Z,16.95
2022-10-28T09:49:37.919Z,19.95
2022-10-28T09:52:15.285Z,14.98
2022-10-28T09:54:49.126Z,17.13
2022-10-28T09:57:17.650Z,18.17
2022-10-28T09:59:46.460Z,17.45
2022-10-28T10:02:28.316Z,16.95
2022-10-28T10:04:58.112Z,15.55
2022-10-28T10:07:38.516Z,19.83
2022-10-28T10:10:14.230Z,17.23
2022-10-28T10:12:43.293Z,16.35
2022-10-28T10:15:18.432Z,18.67
2022-10-28T10:17:49.883Z,11.82
2022-10-28T10:20:19.796Z,15.32
2022-10-28T10:22:50.060Z,16.63
2022-10-28T10:25:29.745Z,23.05
2022-10-28T10:28:01.105Z,16.60
2022-10-28T10:30:32.578Z,14.75
2022-10-28T10:33:03.451Z,15.27
2022-10-28T10:35:32.966Z,17.08
2022-10-28T10:38:03.291Z,19.63
2022-10-28T10:40:34.180Z,19.38
2022-10-28T10:43:22.062Z,16.85
2022-10-28T10:46:02.627Z,18.00
2022-10-28T10:48:34.519Z,19.25
2022-10-28T10:51:07.293Z,13.13
2022-10-28T10:53:36.470Z,13.38
2022-10-28T10:56:06.830Z,18.33
2022-10-28T10:58:36.762Z,11.27
2022-10-28T11:01:07.328Z,21.02
2022-10-28T11:03:40.078Z,19.38
2022-10-28T11:06:23.103Z,16.42
2022-10-28T11:08:58.093Z,15.82
2022-10-28T11:11:34.637Z,15.95
2022-10-28T11:14:19.274Z,17.45
2022-10-28T11:16:51.417Z,19.00
2022-10-28T11:19:24.045Z,17.50
2022-10-28T11:22:16.337Z,19.08
2022-10-28T11:24:57.642Z,15.18
2022-10-28T11:27:35.530Z,13.98
2022-10-28T11:30:04.273Z,15.30
2022-10-28T11:33:01.997Z,21.35
2022-10-28T11:36:00.340Z,13.05
2022-10-28T11:39:09.855Z,12.80
2022-10-28T11:41:49.955Z,18.35
2022-10-28T11:44:32.119Z,17.55
2022-10-28T11:47:11.211Z,20.70
2022-10-28T11:50:12.293Z,14.30
2022-10-28T11:52:56.827Z,13.27
2022-10-28T11:55:35.033Z,14.15
2022-10-28T12:00:59.244Z,13.23
2022-10-28T12:03:44.583Z,17.38
2022-10-28T12:06:19.558Z,15.35
2022-10-28T12:09:16.235Z,12.43
2022-10-28T12:12:09.381Z,19.25
2022-10-28T12:14:46.979Z,14.93
2022-10-28T12:17:20.895Z,14.13
2022-10-28T12:19:55.751Z,18.15
2022-10-28T12:22:28.084Z,15.25
2022-10-28T12:25:00.994Z,13.27
2022-10-28T12:27:32.346Z,16.90
2022-10-28T12:30:06.043Z,13.15
2022-10-28T12:32:37.117Z,11.43
2022-10-28T12:35:09.025Z,16.25
2022-10-28T12:37:44.820Z,15.30
2022-10-28T12:40:21.739Z,13.95
2022-10-28T12:42:55.577Z,14.23
2022-10-28T12:45:25.285Z,14.40
2022-10-28T12:48:00.918Z,13.90
2022-10-28T12:50:34.665Z,13.23
2022-10-28T12:53:19.740Z,14.52
2022-10-28T12:55:53.128Z,15.35
2022-10-28T12:58:26.967Z,13.25
2022-10-28T13:00:58.738Z,12.52
2022-10-28T13:03:27.283Z,12.18
2022-10-28T13:06:19.060Z,12.10
2022-10-28T13:09:14.397Z,18.17
2022-10-28T13:12:03.812Z,9.75
2022-10-28T13:14:49.485Z,12.00
2022-10-28T13:17:28.627Z,12.63
2022-10-28T13:20:18.465Z,14.23
2022-10-28T13:23:02.217Z,9.40
2022-10-28T13:25:48.279Z,14.30
2022-10-28T13:28:21.907Z,9.35
2022-10-28T13:30:58.685Z,15.52
2022-10-28T13:33:28.905Z,10.52
2022-10-28T13:36:09.536Z,13.63
2022-10-28T13:38:38.542Z,13.48
2022-10-28T13:41:19.853Z,12.90
2022-10-28T13:44:21.293Z,17.60
2022-10-28T13:47:24.837Z,14.13
2022-10-28T13:50:22.645Z,16.58
2022-10-28T13:53:24.265Z,13.27
2022-10-28T13:55:58.842Z,17.80
2022-10-28T13:58:28.057Z,21.98
2022-10-28T14:00:56.518Z,21.20
2022-10-28T14:03:28.271Z,19.45
2022-10-28T14:05:59.087Z,21.33
2022-10-28T14:08:30.987Z,31.63
2022-10-28T14:11:05.743Z,32.92
2022-10-28T14:13:36.771Z,20.02
2022-10-28T14:16:24.969Z,23.65
2022-10-28T14:18:58.233Z,20.38
2022-10-28T14:21:26.720Z,20.20
2022-10-28T14:24:11.003Z,18.95
2022-10-28T14:27:31.050Z,25.33
2022-10-28T14:30:32.518Z,21.10
2022-10-28T14:33:27.947Z,23.25
2022-10-28T14:36:14.903Z,22.83
2022-10-28T14:39:17.705Z,19.80
2022-10-28T14:42:10.325Z,26.50
2022-10-28T14:44:59.781Z,26.40
2022-10-28T14:47:54.002Z,21.45
2022-10-28T14:50:24.788Z,22.17
2022-10-28T14:52:56.510Z,24.77
2022-10-28T14:55:27.657Z,22.98
2022-10-28T14:57:56.277Z,19.50
2022-10-28T15:00:29.009Z,25.42
2022-10-28T15:02:57.249Z,23.42
2022-10-28T15:05:32.295Z,20.27
2022-10-28T15:08:04.252Z,24.20
2022-10-28T15:10:34.867Z,24.67
2022-10-28T15:13:04.608Z,17.88
2022-10-28T15:15:34.930Z,26.38
2022-10-28T15:18:03.337Z,19.08
2022-10-28T15:20:33.402Z,24.08
2022-10-28T15:23:15.341Z,18.90
2022-10-28T15:25:43.712Z,17.45
2022-10-28T15:28:12.782Z,24.75
2022-10-28T15:30:46.401Z,26.17
2022-10-28T15:33:31.086Z,22.42
2022-10-28T15:36:16.688Z,26.65
2022-10-28T15:38:49.533Z,23.90
2022-10-28T15:41:49.480Z,23.85
2022-10-28T15:44:31.836Z,20.95
2022-10-28T15:47:00.878Z,22.05
2022-10-28T15:49:35.631Z,18.13
2022-10-28T15:52:33.120Z,23.83
2022-10-28T15:55:16.630Z,19.58
2022-10-28T15:57:50.058Z,27.38
2022-10-28T16:00:23.945Z,18.35
2022-10-28T16:02:55.989Z,19.20
2022-10-28T16:05:48.253Z,29.13
2022-10-28T16:08:28.595Z,18.25
2022-10-28T16:11:01.015Z,19.52
2022-10-28T16:13:32.630Z,26.05
2022-10-28T16:16:03.946Z,22.55
2022-10-28T16:18:35.779Z,27.77
2022-10-28T16:21:06.382Z,17.30
2022-10-28T16:23:38.086Z,18.77
2022-10-28T16:26:08.033Z,27.55
2022-10-28T16:28:38.043Z,23.50
2022-10-28T16:31:07.006Z,22.55
2022-10-28T16:33:39.788Z,26.42
2022-10-28T16:36:08.606Z,22.13
2022-10-28T16:38:36.900Z,24.35
2022-10-28T16:41:11.378Z,20.15
2022-10-28T16:43:39.838Z,16.17
2022-10-28T16:46:08.022Z,23.40
2022-10-28T16:48:36.377Z,25.38
2022-10-28T16:51:07.214Z,23.88
2022-10-28T16:53:35.363Z,26.67
2022-10-28T16:56:04.046Z,25.38
2022-10-28T16:58:35.358Z,28.80
2022-10-28T17:01:04.123Z,23.80
2022-10-28T17:03:32.318Z,21.02
2022-10-28T17:06:00.418Z,21.83
2022-10-28T17:08:56.492Z,24.45
2022-10-28T17:11:17.342Z,27.48
2022-10-28T17:13:48.047Z,29.65
2022-10-28T17:16:16.306Z,23.63
2022-10-28T17:18:44.941Z,19.33
2022-10-28T17:21:13.036Z,18.50
2022-10-28T17:23:41.673Z,15.18
2022-10-28T17:26:10.831Z,25.92
2022-10-28T17:28:39.154Z,32.63
2022-10-28T17:31:10.130Z,34.10
2022-10-28T17:33:38.448Z,31.45
2022-10-28T17:36:08.794Z,34.38
2022-10-28T17:38:37.366Z,26.27
2022-10-28T17:41:05.787Z,28.77
2022-10-28T17:43:34.059Z,31.02
2022-10-28T17:46:05.767Z,27.45
2022-10-28T17:48:39.705Z,28.83
2022-10-28T17:51:08.198Z,19.10
2022-10-28T17:53:36.720Z,17.52
2022-10-28T17:56:09.761Z,21.42
2022-10-28T17:58:38.339Z,19.42
2022-10-28T18:01:09.382Z,19.63
2022-10-28T18:03:39.636Z,24.02
2022-10-28T18:06:11.300Z,31.60
2022-10-28T18:08:41.485Z,37.33
2022-10-28T18:11:11.516Z,23.52
2022-10-28T18:13:42.402Z,19.92
2022-10-28T18:16:12.293Z,26.52
2022-10-28T18:18:42.877Z,24.23
2022-10-28T18:21:11.589Z,15.02
2022-10-28T18:23:41.107Z,18.60
2022-10-28T18:26:12.896Z,13.07
2022-10-28T18:28:42.015Z,10.00
2022-10-28T18:31:12.333Z,22.88
2022-10-28T18:33:42.064Z,14.55
2022-10-28T18:36:13.674Z,11.23
2022-10-28T18:38:42.242Z,15.50
2022-10-28T18:41:11.929Z,16.55
2022-10-28T18:43:40.597Z,14.45
2022-10-28T18:46:09.389Z,13.43
2022-10-28T18:48:37.927Z,9.80
2022-10-28T18:51:10.734Z,12.43
2022-10-28T18:53:40.228Z,19.38
2022-10-28T18:56:11.246Z,13.88
2022-10-28T18:58:39.477Z,11.25
2022-10-28T19:01:09.128Z,12.50
2022-10-28T19:03:37.762Z,13.05
2022-10-28T19:06:09.256Z,15.75
2022-10-28T19:08:38.055Z,12.40
2022-10-28T19:11:07.196Z,12.80
2022-10-28T19:13:36.577Z,15.25
2022-10-28T19:16:05.694Z,16.55
2022-10-28T19:18:36.568Z,8.90
2022-10-28T19:21:05.712Z,14.93
2022-10-28T19:23:36.002Z,11.98
2022-10-28T19:26:04.873Z,15.73
2022-10-28T19:28:38.430Z,14.00
2022-10-28T19:31:08.386Z,14.40
2022-10-28T19:33:38.253Z,14.65
2022-10-28T19:36:08.066Z,14.93
2022-10-28T19:38:39.048Z,13.43
2022-10-28T19:41:09.724Z,19.98
2022-10-28T19:43:38.317Z,21.95
2022-10-28T19:46:08.530Z,101.80
2022-10-28T19:48:36.926Z,233.43
2022-10-28T19:51:05.346Z,233.20
2022-10-28T19:53:34.124Z,83.80
2022-10-28T19:56:05.146Z,22.95
2022-10-28T19:58:33.862Z,16.23
2022-10-28T20:01:03.732Z,17.13
2022-10-28T20:03:35.082Z,13.88
2022-10-28T20:06:06.464Z,23.17
2022-10-28T20:08:35.834Z,21.95
2022-10-28T20:11:06.859Z,25.27
2022-10-28T20:13:35.818Z,33.30
2022-10-28T20:16:05.763Z,19.58
2022-10-28T20:18:34.699Z,23.42
2022-10-28T20:21:06.953Z,20.27
2022-10-28T20:23:35.948Z,26.00
2022-10-28T20:26:06.924Z,31.52
2022-10-28T20:28:35.769Z,25.67
2022-10-28T20:31:06.752Z,21.35
2022-10-28T20:33:35.956Z,16.65
2022-10-28T20:36:04.541Z,15.30
2022-10-28T20:38:33.635Z,17.58
2022-10-28T20:41:02.160Z,12.32
2022-10-28T20:43:32.098Z,14.07
2022-10-28T20:46:02.826Z,14.60
2022-10-28T20:48:31.949Z,14.77
2022-10-28T20:51:02.053Z,18.73
2022-10-28T20:53:35.054Z,16.05
2022-10-28T20:56:03.727Z,16.00
2022-10-28T20:58:35.129Z,15.55
2022-10-28T21:01:05.076Z,19.03
2022-10-28T21:03:33.635Z,13.15
2022-10-28T21:06:04.356Z,16.70
2022-10-28T21:08:32.788Z,15.40
2022-10-28T21:11:03.341Z,19.75
2022-10-28T21:13:33.830Z,15.98
2022-10-28T21:16:05.333Z,18.98
2022-10-28T21:18:33.940Z,20.08
2022-10-28T21:21:02.266Z,17.00
2022-10-28T21:23:31.118Z,19.65
2022-10-28T21:26:01.061Z,18.90
2022-10-28T21:28:30.176Z,21.90
2022-10-28T21:31:03.223Z,12.65
2022-10-28T21:33:31.677Z,19.75
2022-10-28T21:36:01.999Z,24.30
2022-10-28T21:38:30.705Z,16.00
2022-10-28T21:41:02.887Z,19.02
2022-10-28T21:43:31.936Z,17.08
2022-10-28T21:46:00.324Z,21.08
2022-10-28T21:48:30.367Z,20.33
2022-10-28T21:51:01.792Z,17.15
2022-10-28T21:53:33.939Z,21.85
2022-10-28T21:56:05.673Z,21.02
2022-10-28T21:58:36.178Z,16.90
2022-10-28T22:01:06.098Z,17.08
2022-10-28T22:03:36.066Z,20.30
2022-10-28T22:06:04.437Z,22.38
2022-10-28T22:08:32.886Z,18.33
2022-10-28T22:11:02.634Z,14.32
2022-10-28T22:13:31.364Z,16.02
2022-10-28T22:16:00.598Z,17.70
2022-10-28T22:18:29.252Z,17.40
2022-10-28T22:21:04.142Z,20.47
2022-10-28T22:23:32.646Z,20.48
2022-10-28T22:26:02.793Z,19.77
2022-10-28T22:28:31.235Z,21.27
2022-10-28T22:31:00.175Z,16.52
2022-10-28T22:33:28.754Z,20.80
2022-10-28T22:36:02.627Z,22.60
2022-10-28T22:38:30.920Z,29.48
2022-10-28T22:41:07.244Z,21.00
2022-10-28T22:43:36.367Z,13.95
2022-10-28T22:46:04.667Z,20.08
2022-10-28T22:48:33.311Z,20.08
2022-10-28T22:51:03.335Z,22.65
2022-10-28T22:53:31.921Z,24.43
2022-10-28T22:56:00.224Z,23.73
2022-10-28T22:58:29.437Z,21.37
2022-10-28T23:01:07.047Z,15.87
2022-10-28T23:03:38.995Z,19.75
2022-10-28T23:06:09.685Z,26.20
2022-10-28T23:08:38.804Z,22.00
2022-10-28T23:11:07.340Z,18.90
2022-10-28T23:16:10.599Z,20.27
2022-10-28T23:18:39.248Z,24.03
2022-10-28T23:21:11.664Z,18.83
2022-10-28T23:23:40.944Z,24.95
2022-10-28T23:26:10.448Z,23.47
2022-10-28T23:28:38.729Z,22.40
2022-10-28T23:31:07.540Z,21.13
2022-10-28T23:33:36.206Z,22.33
2022-10-28T23:36:05.033Z,26.23
2022-10-28T23:38:34.872Z,22.67
2022-10-28T23:41:04.331Z,25.73
2022-10-28T23:43:33.348Z,25.63
2022-10-28T23:46:02.237Z,21.40
2022-10-28T23:48:31.078Z,22.83
2022-10-28T23:50:59.615Z,21.40
2022-10-28T23:53:30.388Z,22.40
2022-10-28T23:56:00.625Z,24.93
2022-10-28T23:58:28.973Z,15.93
